Time;durP1;ratioP1;P1;durP2;ratioP2;P2;SDS_P1;SDS_P2;PMS_P1;PMS_P2;Temp;Humidity;BMP_temperature;BMP_pressure;BME280_temperature;BME280_humidity;BME280_pressure;Samples;Min_cycle;Max_cycle;Signal;HPM_P1;HPM_P2
2024/03/09 00:00:53;;;;;;;;;;;;;;;0.99;100.00;100227.34;5053650;28;876;-52
2024/03/09 00:03:19;;;;;;;;;;;;;;;0.99;100.00;100232.00;5053642;28;962;-49
2024/03/09 00:05:45;;;;;;;;;;;;;;;1.05;100.00;100224.47;5053882;28;895;-51
2024/03/09 00:08:17;;;;;;;;;;;;;;;1.09;100.00;100222.66;5053574;28;840;-52
2024/03/09 00:10:44;;;;;;;;;;;;;;;1.12;100.00;100222.00;5053445;28;955;-50
2024/03/09 00:13:10;;;;;;;;;;;;;;;1.18;100.00;100226.16;5054015;28;987;-49
2024/03/09 00:15:37;;;;;;;;;;;;;;;1.27;100.00;100231.53;5035427;28;1501;-49
2024/03/09 00:18:04;;;;;;;;;;;;;;;1.33;100.00;100228.28;5053361;28;1902;-49
2024/03/09 00:20:36;;;;;;;;;;;;;;;1.39;100.00;100234.34;5053247;28;938;-48
2024/03/09 00:23:04;;;;;;;;;;;;;;;1.46;100.00;100231.91;5053177;28;907;-48
2024/03/09 00:25:31;;;;;;;;;;;;;;;1.52;100.00;100233.31;5053191;28;832;-50
2024/03/09 00:27:58;;;;;;;;;;;;;;;1.59;100.00;100240.94;5053147;28;939;-50
2024/03/09 00:30:29;;;;;;;;;;;;;;;1.62;100.00;100232.09;5053159;28;844;-49
2024/03/09 00:32:59;;;;;;;;;;;;;;;1.65;100.00;100233.38;5053229;28;1019;-51
2024/03/09 00:35:27;;;;;;;;;;;;;;;1.64;100.00;100229.84;5035581;28;991;-51
2024/03/09 00:37:55;;;;;;;;;;;;;;;1.70;100.00;100228.50;5052967;28;1885;-52
2024/03/09 00:40:28;;;;;;;;;;;;;;;1.76;100.00;100229.13;5053094;28;958;-54
2024/03/09 00:42:59;;;;;;;;;;;;;;;1.80;100.00;100230.84;5052832;28;891;-52
2024/03/09 00:45:25;;;;;;;;;;;;;;;1.82;100.00;100227.78;5052811;28;975;-51
2024/03/09 00:47:52;;;;;;;;;;;;;;;1.87;100.00;100232.25;5052778;28;875;-53
2024/03/09 00:50:21;;;;;;;;;;;;;;;1.90;100.00;100226.13;5052611;28;955;-48
2024/03/09 00:52:48;;;;;;;;;;;;;;;1.94;100.00;100224.31;5052702;28;864;-53
2024/03/09 00:55:14;;;;;;;;;;;;;;;1.94;100.00;100229.78;5052600;28;883;-52
2024/03/09 00:57:44;;;;;;;;;;;;;;;1.94;100.00;100221.59;5052390;28;1913;-52
2024/03/09 01:00:12;;;;;;;;;;;;;;;1.88;100.00;100220.19;5052859;28;820;-53
2024/03/09 01:02:39;;;;;;;;;;;;;;;1.83;100.00;100216.56;5052986;28;1186;-49
2024/03/09 01:05:05;;;;;;;;;;;;;;;1.89;100.00;100216.34;5052698;28;1210;-51
2024/03/09 01:07:32;;;;;;;;;;;;;;;1.98;100.00;100217.06;5052601;28;1327;-53
2024/03/09 01:09:59;;;;;;;;;;;;;;;2.04;100.00;100213.78;5052579;28;906;-53
2024/03/09 01:12:26;;;;;;;;;;;;;;;2.11;100.00;100207.78;5052443;28;1700;-53
2024/03/09 01:14:53;;;;;;;;;;;;;;;2.16;100.00;100218.50;5052492;28;1279;-49
2024/03/09 01:17:23;;;;;;;;;;;;;;;2.21;100.00;100215.56;5052110;28;1989;-52
2024/03/09 01:19:52;;;;;;;;;;;;;;;2.22;100.00;100208.19;5052646;28;827;-54
2024/03/09 01:22:19;;;;;;;;;;;;;;;2.18;100.00;100205.34;5052347;28;879;-48
2024/03/09 01:24:46;;;;;;;;;;;;;;;2.18;100.00;100208.06;5051983;28;947;-51
2024/03/09 01:27:13;;;;;;;;;;;;;;;2.21;100.00;100215.56;5052114;28;860;-50
2024/03/09 01:29:44;;;;;;;;;;;;;;;2.20;100.00;100208.53;5052064;28;819;-53
2024/03/09 01:32:11;;;;;;;;;;;;;;;2.19;100.00;100206.91;5052032;28;951;-53
2024/03/09 01:34:38;;;;;;;;;;;;;;;2.20;100.00;100202.28;5051893;28;884;-52
2024/03/09 01:37:10;;;;;;;;;;;;;;;2.19;100.00;100196.00;5051963;28;1961;-52
2024/03/09 01:39:37;;;;;;;;;;;;;;;2.21;100.00;100201.94;5051862;28;926;-50
2024/03/09 01:42:05;;;;;;;;;;;;;;;2.21;100.00;100198.41;5051878;28;835;-49
2024/03/09 01:44:31;;;;;;;;;;;;;;;2.24;100.00;100203.19;5051385;28;868;-51
2024/03/09 01:46:59;;;;;;;;;;;;;;;2.20;100.00;100211.25;5052004;28;867;-48
2024/03/09 01:49:28;;;;;;;;;;;;;;;2.15;100.00;100208.72;5051922;28;879;-51
2024/03/09 01:51:55;;;;;;;;;;;;;;;2.17;100.00;100208.41;5051571;28;896;-48
2024/03/09 01:54:27;;;;;;;;;;;;;;;2.27;100.00;100209.91;5051803;28;923;-52
2024/03/09 01:56:56;;;;;;;;;;;;;;;2.33;100.00;100212.09;5051712;28;1905;-51
2024/03/09 01:59:25;;;;;;;;;;;;;;;2.28;100.00;100206.84;5051577;28;966;-52
2024/03/09 02:01:52;;;;;;;;;;;;;;;2.25;100.00;100208.31;5051984;28;812;-51
2024/03/09 02:04:19;;;;;;;;;;;;;;;2.26;100.00;100211.81;5051575;28;833;-50
2024/03/09 02:06:47;;;;;;;;;;;;;;;2.27;100.00;100213.44;5051661;28;832;-49
2024/03/09 02:09:15;;;;;;;;;;;;;;;2.25;100.00;100211.03;5051390;28;945;-51
2024/03/09 02:11:42;;;;;;;;;;;;;;;2.24;100.00;100208.63;5051477;28;1048;-53
2024/03/09 02:14:09;;;;;;;;;;;;;;;2.22;100.00;100211.72;5051435;28;880;-52
2024/03/09 02:16:36;;;;;;;;;;;;;;;2.22;100.00;100203.53;5051084;28;1909;-50
2024/03/09 02:19:03;;;;;;;;;;;;;;;2.23;100.00;100204.31;5051412;28;872;-49
2024/03/09 02:21:34;;;;;;;;;;;;;;;2.21;100.00;100204.66;5051193;28;923;-50
2024/03/09 02:24:07;;;;;;;;;;;;;;;2.20;100.00;100213.19;5051626;28;950;-51
2024/03/09 02:26:38;;;;;;;;;;;;;;;2.19;100.00;100211.59;5051225;28;939;-49
2024/03/09 02:29:05;;;;;;;;;;;;;;;2.17;100.00;100209.19;5051392;28;1414;-53
2024/03/09 02:31:32;;;;;;;;;;;;;;;2.15;100.00;100205.22;5051801;28;863;-49
2024/03/09 02:34:00;;;;;;;;;;;;;;;2.11;100.00;100209.72;5051227;28;1402;-49
2024/03/09 02:36:28;;;;;;;;;;;;;;;2.05;100.00;100214.63;5033530;28;1952;-53
2024/03/09 02:38:55;;;;;;;;;;;;;;;2.01;100.00;100213.69;5051673;28;906;-53
2024/03/09 02:41:24;;;;;;;;;;;;;;;1.98;100.00;100206.94;5051350;28;824;-52
2024/03/09 02:43:53;;;;;;;;;;;;;;;1.97;100.00;100207.31;5051232;28;843;-53
2024/03/09 02:46:21;;;;;;;;;;;;;;;1.96;100.00;100219.31;5051108;28;924;-51
2024/03/09 02:48:51;;;;;;;;;;;;;;;1.96;100.00;100203.78;5051008;28;892;-52
2024/03/09 02:51:17;;;;;;;;;;;;;;;1.98;100.00;100206.16;5051158;28;828;-53
2024/03/09 02:53:43;;;;;;;;;;;;;;;2.00;100.00;100212.88;5051135;28;891;-54
2024/03/09 02:56:11;;;;;;;;;;;;;;;2.00;100.00;100210.16;5053181;28;904;-51
2024/03/09 02:58:38;;;;;;;;;;;;;;;1.99;100.00;100203.09;5054794;28;1882;-53
2024/03/09 03:01:07;;;;;;;;;;;;;;;1.97;100.00;100205.38;5054748;28;946;-53
2024/03/09 03:03:48;;;;;;;;;;;;;;;1.98;100.00;100204.22;5054901;28;847;-50
2024/03/09 03:06:18;;;;;;;;;;;;;;;1.94;100.00;100199.78;5054639;28;903;-51
2024/03/09 03:08:55;;;;;;;;;;;;;;;1.92;100.00;100205.59;5054832;28;922;-51
2024/03/09 03:11:22;;;;;;;;;;;;;;;1.96;100.00;100194.78;5036744;28;1082;-52
2024/03/09 03:13:50;;;;;;;;;;;;;;;2.00;100.00;100204.69;5054690;28;1070;-54
2024/03/09 03:16:21;;;;;;;;;;;;;;;2.04;100.00;100205.63;5054327;28;1972;-53
2024/03/09 03:18:48;;;;;;;;;;;;;;;2.07;100.00;100204.16;5054819;28;879;-52
2024/03/09 03:21:15;;;;;;;;;;;;;;;2.12;100.00;100203.16;5055031;28;844;-53
2024/03/09 03:23:42;;;;;;;;;;;;;;;2.14;100.00;100196.22;5054675;28;1021;-50
2024/03/09 03:26:12;;;;;;;;;;;;;;;2.13;100.00;100186.44;5054732;28;852;-52
2024/03/09 03:28:39;;;;;;;;;;;;;;;2.13;100.00;100202.81;5054422;28;941;-50
2024/03/09 03:31:06;;;;;;;;;;;;;;;2.12;100.00;100189.53;5054284;28;823;-49
2024/03/09 03:33:33;;;;;;;;;;;;;;;2.11;100.00;100193.38;5054421;28;863;-52
2024/03/09 03:36:02;;;;;;;;;;;;;;;2.10;100.00;100195.31;5036366;28;971;-53
2024/03/09 03:38:28;;;;;;;;;;;;;;;2.09;100.00;100201.91;5054057;28;1947;-51
2024/03/09 03:40:54;;;;;;;;;;;;;;;2.07;100.00;100200.63;5053996;28;942;-53
2024/03/09 03:43:21;;;;;;;;;;;;;;;2.06;100.00;100201.78;5054032;28;912;-52
2024/03/09 03:45:47;;;;;;;;;;;;;;;2.03;100.00;100198.59;5054056;28;894;-53
2024/03/09 03:48:16;;;;;;;;;;;;;;;2.02;100.00;100207.09;5053948;28;1084;-51
2024/03/09 03:50:43;;;;;;;;;;;;;;;2.00;100.00;100207.41;5053863;28;987;-52
2024/03/09 03:53:09;;;;;;;;;;;;;;;1.91;100.00;100198.53;5053774;28;970;-49
2024/03/09 03:55:37;;;;;;;;;;;;;;;1.82;100.00;100203.25;5053746;28;899;-49
2024/03/09 03:58:06;;;;;;;;;;;;;;;1.74;100.00;100199.47;5053621;28;1890;-52
2024/03/09 04:00:33;;;;;;;;;;;;;;;1.68;100.00;100203.53;5053719;28;891;-50
2024/03/09 04:03:00;;;;;;;;;;;;;;;1.64;100.00;100202.59;5053519;28;902;-50
2024/03/09 04:05:29;;;;;;;;;;;;;;;1.65;100.00;100193.31;5053656;28;957;-48
2024/03/09 04:07:56;;;;;;;;;;;;;;;1.68;100.00;100192.63;5053092;28;954;-49
2024/03/09 04:10:22;;;;;;;;;;;;;;;1.70;100.00;100195.81;5035836;28;1027;-49
2024/03/09 04:12:49;;;;;;;;;;;;;;;1.75;100.00;100195.63;5053866;28;1026;-49
2024/03/09 04:15:14;;;;;;;;;;;;;;;1.80;100.00;100197.34;5053390;28;899;-52
2024/03/09 04:17:42;;;;;;;;;;;;;;;1.87;100.00;100192.16;5053165;28;1918;-52
2024/03/09 04:20:09;;;;;;;;;;;;;;;1.94;100.00;100197.88;5053390;28;844;-51
2024/03/09 04:22:35;;;;;;;;;;;;;;;2.03;100.00;100200.53;5052212;28;1290;-52
2024/03/09 04:25:02;;;;;;;;;;;;;;;2.12;100.00;100200.44;5053303;28;871;-50
2024/03/09 04:27:31;;;;;;;;;;;;;;;2.13;100.00;100202.81;5053286;28;796;-49
2024/03/09 04:29:58;;;;;;;;;;;;;;;2.12;100.00;100208.63;5053169;28;939;-50
2024/03/09 04:32:25;;;;;;;;;;;;;;;2.12;100.00;100209.41;5053130;28;927;-50
2024/03/09 04:34:55;;;;;;;;;;;;;;;2.13;100.00;100212.94;5052980;28;932;-49
2024/03/09 04:37:27;;;;;;;;;;;;;;;2.15;100.00;100210.66;5053013;28;1894;-48
2024/03/09 04:39:58;;;;;;;;;;;;;;;2.10;100.00;100219.84;5053104;28;895;-49
2024/03/09 04:42:25;;;;;;;;;;;;;;;2.05;100.00;100220.06;5052905;28;944;-50
2024/03/09 04:44:52;;;;;;;;;;;;;;;2.01;100.00;100211.75;5052850;28;827;-49
2024/03/09 04:47:22;;;;;;;;;;;;;;;2.02;100.00;100216.06;5052957;28;847;-49
2024/03/09 04:49:48;;;;;;;;;;;;;;;2.00;100.00;100214.81;5052818;28;990;-52
2024/03/09 04:52:15;;;;;;;;;;;;;;;1.99;100.00;100213.22;5053128;28;827;-50
2024/03/09 04:54:45;;;;;;;;;;;;;;;2.01;100.00;100210.97;5053105;28;917;-48
2024/03/09 04:57:17;;;;;;;;;;;;;;;2.07;100.00;100208.81;5052574;28;1910;-48
2024/03/09 04:59:43;;;;;;;;;;;;;;;2.12;100.00;100219.53;5052582;28;899;-50
2024/03/09 05:02:10;;;;;;;;;;;;;;;2.15;100.00;100225.09;5052779;28;962;-48
2024/03/09 05:04:37;;;;;;;;;;;;;;;2.19;100.00;100214.31;5052519;28;943;-50
2024/03/09 05:07:04;;;;;;;;;;;;;;;2.26;100.00;100225.47;5052639;28;820;-50
2024/03/09 05:09:31;;;;;;;;;;;;;;;2.33;100.00;100225.72;5052412;28;873;-49
2024/03/09 05:11:58;;;;;;;;;;;;;;;2.38;100.00;100233.69;5034518;28;1030;-48
2024/03/09 05:14:24;;;;;;;;;;;;;;;2.38;100.00;100225.50;5052260;28;859;-50
2024/03/09 05:16:51;;;;;;;;;;;;;;;2.34;100.00;100230.03;5052085;28;1906;-49
2024/03/09 05:19:17;;;;;;;;;;;;;;;2.30;100.00;100233.78;5051898;28;884;-51
2024/03/09 05:21:44;;;;;;;;;;;;;;;2.27;100.00;100235.25;5052386;28;827;-51
2024/03/09 05:24:11;;;;;;;;;;;;;;;2.32;100.00;100245.16;5052121;28;892;-49
2024/03/09 05:26:42;;;;;;;;;;;;;;;2.33;100.00;100246.75;5052154;28;868;-50
2024/03/09 05:29:11;;;;;;;;;;;;;;;2.33;100.00;100249.50;5052286;28;931;-49
2024/03/09 05:31:37;;;;;;;;;;;;;;;2.35;100.00;100252.69;5052068;28;824;-48
2024/03/09 05:34:04;;;;;;;;;;;;;;;2.39;100.00;100248.13;5052365;28;903;-49
2024/03/09 05:36:31;;;;;;;;;;;;;;;2.48;100.00;100253.53;5051903;28;1910;-49
2024/03/09 05:38:58;;;;;;;;;;;;;;;2.53;100.00;100254.09;5051940;28;823;-50
2024/03/09 05:41:25;;;;;;;;;;;;;;;2.64;100.00;100259.91;5052050;28;895;-50
2024/03/09 05:43:51;;;;;;;;;;;;;;;2.72;100.00;100253.56;5051793;28;994;-49
2024/03/09 05:46:18;;;;;;;;;;;;;;;2.82;100.00;100263.25;5051884;28;914;-50
2024/03/09 05:48:47;;;;;;;;;;;;;;;2.92;100.00;100256.53;5051781;28;894;-49
2024/03/09 05:51:18;;;;;;;;;;;;;;;3.03;100.00;100263.97;5051749;28;1153;-49
2024/03/09 05:53:45;;;;;;;;;;;;;;;3.18;100.00;100267.13;5051698;28;927;-50
2024/03/09 05:56:11;;;;;;;;;;;;;;;3.33;100.00;100262.94;5051748;28;875;-50
2024/03/09 05:58:38;;;;;;;;;;;;;;;3.48;100.00;100265.00;5051513;28;1981;-49
2024/03/09 06:01:05;;;;;;;;;;;;;;;3.64;100.00;100257.66;5051703;28;864;-52
2024/03/09 06:03:41;;;;;;;;;;;;;;;3.76;100.00;100264.25;5051543;28;942;-50
2024/03/09 06:06:09;;;;;;;;;;;;;;;3.83;100.00;100262.53;5051287;28;1295;-52
2024/03/09 06:08:36;;;;;;;;;;;;;;;3.82;100.00;100274.63;5051830;28;828;-53
2024/03/09 06:11:02;;;;;;;;;;;;;;;3.86;100.00;100277.44;5051386;28;1077;-50
2024/03/09 06:13:30;;;;;;;;;;;;;;;3.86;100.00;100275.53;5051574;28;864;-53
2024/03/09 06:15:56;;;;;;;;;;;;;;;3.92;100.00;100276.06;5051350;28;1371;-50
2024/03/09 06:18:24;;;;;;;;;;;;;;;4.05;100.00;100277.63;5051411;28;1982;-52
2024/03/09 06:20:51;;;;;;;;;;;;;;;4.14;100.00;100276.69;5051364;28;986;-50
2024/03/09 06:23:19;;;;;;;;;;;;;;;4.18;100.00;100283.88;5051256;28;986;-49
2024/03/09 06:25:46;;;;;;;;;;;;;;;4.24;100.00;100290.66;5051451;28;931;-53
2024/03/09 06:28:14;;;;;;;;;;;;;;;4.32;100.00;100279.94;5051223;28;943;-50
2024/03/09 06:30:41;;;;;;;;;;;;;;;4.44;100.00;100288.88;5054646;28;820;-51
2024/03/09 06:33:07;;;;;;;;;;;;;;;4.59;100.00;100276.38;5055229;28;926;-51
2024/03/09 06:35:34;;;;;;;;;;;;;;;4.72;100.00;100290.81;5055329;28;930;-48
2024/03/09 06:38:01;;;;;;;;;;;;;;;4.79;100.00;100290.19;5055098;28;1914;-49
2024/03/09 06:40:29;;;;;;;;;;;;;;;4.99;100.00;100296.56;5055222;28;872;-49
2024/03/09 06:43:03;;;;;;;;;;;;;;;5.22;100.00;100299.50;5055093;28;938;-50
2024/03/09 06:45:30;;;;;;;;;;;;;;;5.41;100.00;100294.09;5055094;28;946;-49
2024/03/09 06:47:59;;;;;;;;;;;;;;;5.59;100.00;100299.19;5055208;28;827;-50
2024/03/09 06:50:27;;;;;;;;;;;;;;;5.79;100.00;100305.53;5055076;28;884;-50
2024/03/09 06:52:53;;;;;;;;;;;;;;;5.84;100.00;100306.03;5055117;28;827;-50
2024/03/09 06:55:24;;;;;;;;;;;;;;;6.01;100.00;100304.88;5054960;28;883;-51
2024/03/09 06:57:54;;;;;;;;;;;;;;;6.20;100.00;100303.31;5054916;28;1961;-49
2024/03/09 07:00:20;;;;;;;;;;;;;;;6.30;100.00;100313.72;5054844;28;1406;-48
2024/03/09 07:02:49;;;;;;;;;;;;;;;6.38;100.00;100309.97;5055070;28;926;-48
2024/03/09 07:05:15;;;;;;;;;;;;;;;6.38;100.00;100314.63;5054952;28;1006;-51
2024/03/09 07:07:42;;;;;;;;;;;;;;;6.37;100.00;100313.06;5055020;28;864;-51
2024/03/09 07:10:12;;;;;;;;;;;;;;;6.38;100.00;100317.38;5054877;28;1212;-48
2024/03/09 07:12:41;;;;;;;;;;;;;;;6.46;100.00;100322.66;5054509;28;1054;-50
2024/03/09 07:15:14;;;;;;;;;;;;;;;6.48;100.00;100322.31;5054556;28;1067;-48
2024/03/09 07:17:44;;;;;;;;;;;;;;;6.57;100.00;100322.88;5054337;28;1914;-49
2024/03/09 07:20:11;;;;;;;;;;;;;;;6.60;100.00;100319.41;5054483;28;860;-49
2024/03/09 07:22:41;;;;;;;;;;;;;;;6.83;100.00;100316.72;5054624;28;874;-49
2024/03/09 07:25:15;;;;;;;;;;;;;;;6.84;100.00;100320.25;5054400;28;911;-51
2024/03/09 07:27:43;;;;;;;;;;;;;;;6.88;100.00;100323.84;5054447;28;871;-50
2024/03/09 07:30:10;;;;;;;;;;;;;;;7.07;100.00;100318.31;5036562;28;1435;-50
2024/03/09 07:32:43;;;;;;;;;;;;;;;7.20;100.00;100321.66;5054249;28;1192;-50
2024/03/09 07:35:14;;;;;;;;;;;;;;;7.24;100.00;100319.00;5054219;28;935;-49
2024/03/09 07:37:44;;;;;;;;;;;;;;;7.22;100.00;100322.09;5054099;28;1881;-50
2024/03/09 07:40:11;;;;;;;;;;;;;;;7.23;100.00;100325.63;5054110;28;820;-49
2024/03/09 07:42:38;;;;;;;;;;;;;;;7.33;100.00;100323.06;5053379;28;867;-49
2024/03/09 07:45:07;;;;;;;;;;;;;;;7.61;100.00;100332.16;5054030;28;884;-50
2024/03/09 07:47:34;;;;;;;;;;;;;;;7.73;100.00;100329.97;5053964;28;900;-49
2024/03/09 07:50:01;;;;;;;;;;;;;;;8.00;100.00;100331.94;5054007;28;892;-51
2024/03/09 07:52:28;;;;;;;;;;;;;;;7.88;100.00;100331.00;5053945;28;824;-51
2024/03/09 07:54:56;;;;;;;;;;;;;;;7.91;100.00;100334.94;5054060;28;918;-51
2024/03/09 07:57:22;;;;;;;;;;;;;;;8.29;100.00;100335.88;5036083;28;1882;-51
2024/03/09 07:59:49;;;;;;;;;;;;;;;8.45;100.00;100333.75;5053811;28;915;-49
2024/03/09 08:02:16;;;;;;;;;;;;;;;8.26;100.00;100326.41;5036084;28;1275;-49
2024/03/09 08:04:42;;;;;;;;;;;;;;;8.19;100.00;100342.81;5053617;28;903;-50
2024/03/09 08:07:09;;;;;;;;;;;;;;;8.64;100.00;100335.53;5053893;28;891;-51
2024/03/09 08:09:35;;;;;;;;;;;;;;;8.83;100.00;100334.53;5053611;28;844;-49
2024/03/09 08:12:02;;;;;;;;;;;;;;;8.79;100.00;100329.00;5053718;28;995;-51
2024/03/09 08:14:33;;;;;;;;;;;;;;;8.51;100.00;100332.25;5053544;28;898;-49
2024/03/09 08:17:00;;;;;;;;;;;;;;;8.63;100.00;100330.41;5053458;28;1984;-49
2024/03/09 08:19:27;;;;;;;;;;;;;;;8.66;100.00;100332.38;5053660;28;1205;-52
2024/03/09 08:21:54;;;;;;;;;;;;;;;8.57;100.00;100330.72;5053434;28;865;-50
2024/03/09 08:24:21;;;;;;;;;;;;;;;8.67;100.00;100326.50;5054128;28;792;-49
2024/03/09 08:26:48;;;;;;;;;;;;;;;9.29;100.00;100328.69;5053286;28;966;-50
2024/03/09 08:29:15;;;;;;;;;;;;;;;8.96;100.00;100321.28;5053791;28;777;-50
2024/03/09 08:31:42;;;;;;;;;;;;;;;9.04;100.00;100325.69;5053453;28;907;-49
2024/03/09 08:34:09;;;;;;;;;;;;;;;8.89;100.00;100329.50;5053388;28;868;-51
2024/03/09 08:36:36;;;;;;;;;;;;;;;9.35;100.00;100324.41;5053209;28;1902;-53
2024/03/09 08:39:03;;;;;;;;;;;;;;;9.44;100.00;100318.56;5035442;28;1692;-55
2024/03/09 08:41:32;;;;;;;;;;;;;;;9.96;100.00;100318.53;5053118;28;982;-53
2024/03/09 08:43:59;;;;;;;;;;;;;;;10.08;100.00;100312.69;5052852;28;942;-56
2024/03/09 08:46:26;;;;;;;;;;;;;;;10.31;100.00;100312.44;5035266;28;891;-55
2024/03/09 08:48:53;;;;;;;;;;;;;;;11.02;100.00;100314.59;5052717;28;935;-56
2024/03/09 08:51:20;;;;;;;;;;;;;;;11.23;100.00;100310.28;5052910;28;828;-56
2024/03/09 08:53:47;;;;;;;;;;;;;;;11.63;100.00;100302.75;5052621;28;963;-55
2024/03/09 08:56:17;;;;;;;;;;;;;;;11.83;100.00;100309.44;5052923;28;883;-56
2024/03/09 08:58:43;;;;;;;;;;;;;;;11.67;100.00;100320.16;5052444;28;1889;-57
2024/03/09 09:01:10;;;;;;;;;;;;;;;11.37;93.60;100312.25;5052666;28;883;-57
2024/03/09 09:03:37;;;;;;;;;;;;;;;11.32;88.94;100309.88;5052486;28;919;-57
2024/03/09 09:06:03;;;;;;;;;;;;;;;10.65;94.27;100305.81;5052490;28;880;-53
2024/03/09 09:08:29;;;;;;;;;;;;;;;10.13;100.00;100306.00;5052421;28;864;-50
2024/03/09 09:10:56;;;;;;;;;;;;;;;10.09;100.00;100306.00;5052341;28;1033;-50
2024/03/09 09:13:23;;;;;;;;;;;;;;;9.60;100.00;100313.59;5052517;28;867;-56
2024/03/09 09:15:51;;;;;;;;;;;;;;;9.21;100.00;100304.97;5052102;28;1287;-56
2024/03/09 09:18:19;;;;;;;;;;;;;;;9.09;100.00;100305.25;5052147;28;1977;-50
2024/03/09 09:20:48;;;;;;;;;;;;;;;9.20;100.00;100303.41;5052283;28;883;-52
2024/03/09 09:23:15;;;;;;;;;;;;;;;9.17;100.00;100306.91;5052139;28;916;-49
2024/03/09 09:25:41;;;;;;;;;;;;;;;9.34;100.00;100302.72;5052291;28;941;-50
2024/03/09 09:28:08;;;;;;;;;;;;;;;9.08;100.00;100307.22;5052195;28;832;-49
2024/03/09 09:30:35;;;;;;;;;;;;;;;8.90;100.00;100298.00;5052100;28;846;-49
2024/03/09 09:33:01;;;;;;;;;;;;;;;8.83;100.00;100297.94;5052096;28;911;-50
2024/03/09 09:35:28;;;;;;;;;;;;;;;9.16;100.00;100300.63;5052122;28;867;-49
2024/03/09 09:37:57;;;;;;;;;;;;;;;9.51;100.00;100293.78;5051825;28;1943;-51
2024/03/09 09:40:25;;;;;;;;;;;;;;;10.30;100.00;100291.50;5052228;28;848;-51
2024/03/09 10:14:00;;;;;;;;;;;;;;;12.10;84.27;100286.03;5181324;22;1673;-59
2024/03/09 10:19:52;;;;;;;;;;;;;;;12.82;81.19;100273.44;5031804;28;815;-59
2024/03/09 10:22:20;;;;;;;;;;;;;;;12.29;81.14;100274.50;5031714;28;907;-59
2024/03/09 10:24:55;;;;;;;;;;;;;;;12.44;87.22;100258.59;5031690;28;910;-60
2024/03/09 10:27:26;;;;;;;;;;;;;;;12.56;69.75;100266.44;5031384;28;971;-59
2024/03/09 10:30:15;;;;;;;;;;;;;;;12.58;79.92;100263.25;5031628;28;898;-59
2024/03/09 10:32:42;;;;;;;;;;;;;;;12.60;75.67;100263.66;5031390;28;922;-59
2024/03/09 10:35:11;;;;;;;;;;;;;;;12.49;79.73;100258.16;5031543;28;844;-59
2024/03/09 10:37:39;;;;;;;;;;;;;;;12.19;87.59;100256.72;5031792;28;887;-61
2024/03/09 10:40:20;;;;;;;;;;;;;;;12.33;80.33;100247.56;5031674;28;851;-60
2024/03/09 10:42:47;;;;;;;;;;;;;;;12.50;75.93;100256.19;5031445;28;859;-60
2024/03/09 10:45:15;;;;;;;;;;;;;;;12.66;76.49;100245.41;5031327;28;851;-61
2024/03/09 10:47:50;;;;;;;;;;;;;;;12.33;77.22;100246.75;5031381;28;1889;-61
2024/03/09 10:50:24;;;;;;;;;;;;;;;12.73;82.59;100242.56;5031357;28;903;-62
2024/03/09 10:53:10;;;;;;;;;;;;;;;12.68;72.35;100250.53;5031366;28;843;-61
2024/03/09 10:55:55;;;;;;;;;;;;;;;11.73;76.29;100254.06;5029753;28;1249;-62
2024/03/09 10:58:25;;;;;;;;;;;;;;;11.33;79.39;100253.34;5031353;28;831;-61
2024/03/09 11:00:52;;;;;;;;;;;;;;;11.42;79.19;100254.53;5031253;28;828;-61
2024/03/09 11:03:26;;;;;;;;;;;;;;;11.12;82.15;100251.41;5013566;28;814;-61
2024/03/09 11:05:53;;;;;;;;;;;;;;;11.04;87.95;100250.59;5031332;28;863;-60
2024/03/09 11:08:21;;;;;;;;;;;;;;;10.97;84.45;100253.38;5031090;28;1953;-60
2024/03/09 11:10:48;;;;;;;;;;;;;;;10.88;83.12;100247.41;5031226;28;859;-61
2024/03/09 11:13:18;;;;;;;;;;;;;;;11.24;94.38;100246.25;5030944;28;1305;-62
2024/03/09 11:15:51;;;;;;;;;;;;;;;11.63;86.50;100244.63;5031192;28;910;-61
2024/03/09 11:18:21;;;;;;;;;;;;;;;11.73;83.70;100243.78;5034823;28;832;-61
2024/03/09 11:20:47;;;;;;;;;;;;;;;11.36;83.82;100241.50;5034769;28;848;-61
2024/03/09 11:23:14;;;;;;;;;;;;;;;11.38;88.10;100241.88;5034707;28;879;-60
2024/03/09 11:25:54;;;;;;;;;;;;;;;11.01;83.11;100241.13;5034679;28;827;-62
2024/03/09 11:28:40;;;;;;;;;;;;;;;10.77;82.98;100244.63;5034535;28;1969;-61
2024/03/09 11:31:11;;;;;;;;;;;;;;;10.67;88.82;100243.44;5016729;28;1152;-61
2024/03/09 11:33:50;;;;;;;;;;;;;;;10.37;89.63;100239.03;5034657;28;911;-61
2024/03/09 11:36:36;;;;;;;;;;;;;;;10.14;90.97;100238.53;5034392;28;832;-62
2024/03/09 11:39:03;;;;;;;;;;;;;;;10.18;96.81;100236.59;5034640;28;858;-63
2024/03/09 11:41:30;;;;;;;;;;;;;;;10.01;92.91;100246.38;5034428;28;831;-61
2024/03/09 11:43:59;;;;;;;;;;;;;;;9.89;93.13;100236.44;5034200;28;883;-63
2024/03/09 11:46:28;;;;;;;;;;;;;;;9.85;93.70;100243.91;5034281;28;844;-63
2024/03/09 11:48:55;;;;;;;;;;;;;;;9.89;94.91;100236.44;5034326;28;1890;-63
2024/03/09 11:51:22;;;;;;;;;;;;;;;9.87;93.11;100238.03;5034065;28;879;-62
2024/03/09 11:53:49;;;;;;;;;;;;;;;10.08;95.92;100226.28;5034137;28;903;-61
2024/03/09 11:56:15;;;;;;;;;;;;;;;10.17;95.72;100221.97;5034076;28;903;-60
2024/03/09 11:58:42;;;;;;;;;;;;;;;10.33;99.02;100223.63;5033898;28;867;-60
2024/03/09 12:01:13;;;;;;;;;;;;;;;10.31;96.89;100224.03;5033932;28;887;-60
2024/03/09 12:03:40;;;;;;;;;;;;;;;10.31;96.10;100224.03;5033877;28;836;-60
2024/03/09 12:06:07;;;;;;;;;;;;;;;10.14;91.54;100220.00;5034165;28;866;-60
2024/03/09 12:08:34;;;;;;;;;;;;;;;10.11;93.02;100218.00;5033888;28;1866;-61
2024/03/09 12:11:01;;;;;;;;;;;;;;;10.12;92.39;100216.03;5033840;28;956;-61
2024/03/09 12:13:27;;;;;;;;;;;;;;;10.15;92.21;100223.53;5012428;28;1408;-61
2024/03/09 12:15:54;;;;;;;;;;;;;;;10.31;95.34;100212.19;5013932;28;835;-60
2024/03/09 12:18:21;;;;;;;;;;;;;;;10.23;91.57;100220.41;5013841;28;847;-60
2024/03/09 12:20:48;;;;;;;;;;;;;;;10.12;90.35;100218.81;5013798;28;907;-60
2024/03/09 12:23:17;;;;;;;;;;;;;;;10.07;92.17;100208.13;5013721;28;899;-60
2024/03/09 12:25:45;;;;;;;;;;;;;;;10.27;95.00;100211.34;5013746;28;1007;-59
2024/03/09 12:28:15;;;;;;;;;;;;;;;10.27;96.69;100211.34;5013204;28;1906;-60
2024/03/09 12:30:47;;;;;;;;;;;;;;;10.40;97.15;100216.13;5014023;28;847;-60
2024/03/09 12:33:14;;;;;;;;;;;;;;;10.27;100.00;100209.38;5013542;28;894;-60
2024/03/09 12:35:42;;;;;;;;;;;;;;;10.39;100.00;100217.34;5013474;28;920;-60
2024/03/09 12:38:12;;;;;;;;;;;;;;;10.34;100.00;100212.19;5013541;28;852;-61
2024/03/09 12:40:42;;;;;;;;;;;;;;;10.19;100.00;100200.25;5012146;28;1656;-61
2024/03/09 12:43:09;;;;;;;;;;;;;;;10.07;97.88;100208.94;5012042;28;1161;-61
2024/03/09 12:45:36;;;;;;;;;;;;;;;10.09;100.00;100216.81;5013291;28;820;-61
2024/03/09 12:48:03;;;;;;;;;;;;;;;9.99;99.12;100219.13;5013176;28;1955;-60
2024/03/09 12:50:31;;;;;;;;;;;;;;;9.87;100.00;100213.16;5013233;28;895;-59
2024/03/09 12:53:00;;;;;;;;;;;;;;;9.78;98.67;100211.56;5013016;28;939;-59
2024/03/09 12:55:28;;;;;;;;;;;;;;;9.92;100.00;100212.78;5013181;28;832;-59
2024/03/09 12:57:59;;;;;;;;;;;;;;;10.10;100.00;100208.13;5012978;28;883;-60
2024/03/09 13:00:28;;;;;;;;;;;;;;;10.18;100.00;100204.22;5013366;28;891;-59
2024/03/09 13:02:55;;;;;;;;;;;;;;;10.31;100.00;100201.91;5012956;28;814;-59
2024/03/09 13:05:24;;;;;;;;;;;;;;;10.33;100.00;100201.53;5013080;28;805;-61
2024/03/09 13:07:52;;;;;;;;;;;;;;;10.28;99.73;100196.34;5012889;28;1953;-59
2024/03/09 13:10:24;;;;;;;;;;;;;;;10.27;100.00;100197.53;5012897;28;887;-60
2024/03/09 13:12:57;;;;;;;;;;;;;;;10.33;100.00;100199.56;5014906;28;1228;-58
2024/03/09 13:15:25;;;;;;;;;;;;;;;10.21;97.13;100188.81;5032562;28;910;-59
2024/03/09 13:17:55;;;;;;;;;;;;;;;9.90;92.52;100193.88;5032541;28;879;-59
2024/03/09 13:20:30;;;;;;;;;;;;;;;9.75;96.37;100187.50;5033016;28;840;-59
2024/03/09 13:23:00;;;;;;;;;;;;;;;9.71;98.57;100183.91;5032458;28;828;-59
2024/03/09 13:25:33;;;;;;;;;;;;;;;9.71;98.75;100183.13;5032369;28;833;-60
2024/03/09 13:28:06;;;;;;;;;;;;;;;9.71;98.27;100183.13;5032253;28;1910;-59
2024/03/09 13:30:35;;;;;;;;;;;;;;;9.85;97.95;100183.19;5032571;28;887;-59
2024/03/09 13:33:03;;;;;;;;;;;;;;;9.95;100.00;100184.41;5032169;28;883;-59
2024/03/09 13:35:30;;;;;;;;;;;;;;;9.99;100.00;100177.72;5032306;28;871;-59